Nikolo-Poloma, Russia
Current Conditions -  °F | °C
As of 10:30 PM on Tuesday 25 Nov 2014 (Local Time) from UUDL Reporting Station
Overcast Overcast  
Wind Chill: 19°   Ceiling: 1100
Heat Index: 25°   Visibility: 6mi
Dew Point: 21°   Wind: 4mph
Humidity: 86%   Direction: 200°SSW
Pressure: 30.48"   Gusts: NA
Location:  58.33°N, 43.4°E
Report Text: UUDL 251930Z 20002MPS 9000 OVC011 M04/M06 Q1032 NOSIG RMKQFE765 23000060
Loading
Personal Weather Stations






























Interactive Weather Map New forecast layout! Learn more

10-Day Weather Forecast

Advertisements
Track Severe Weather on mobile